createdAt,value
2018-07-28T00:00:40.105Z,100919.56
2018-07-28T00:03:14.414Z,100924.40
2018-07-28T00:05:50.243Z,100915.39
2018-07-28T00:08:23.079Z,100912.81
2018-07-28T00:10:56.214Z,100920.14
2018-07-28T00:13:26.146Z,100923.42
2018-07-28T00:15:57.530Z,100921.22
2018-07-28T00:18:29.053Z,100919.57
2018-07-28T00:21:00.556Z,100921.58
2018-07-28T00:23:34.967Z,100927.98
2018-07-28T00:26:22.217Z,100933.77
2018-07-28T00:28:55.467Z,100939.20
2018-07-28T00:31:30.034Z,100935.36
2018-07-28T00:34:03.199Z,100934.61
2018-07-28T00:36:37.631Z,100934.84
2018-07-28T00:39:15.897Z,100950.35
2018-07-28T00:41:49.089Z,100945.43
2018-07-28T00:44:22.242Z,100950.45
2018-07-28T00:46:53.613Z,100947.28
2018-07-28T00:49:26.167Z,100947.62
2018-07-28T00:51:58.091Z,100934.67
2018-07-28T00:54:31.044Z,100935.52
2018-07-28T00:57:03.258Z,100934.84
2018-07-28T00:59:36.305Z,100944.28
2018-07-28T01:02:07.950Z,100936.73
2018-07-28T01:04:39.475Z,100936.28
2018-07-28T01:07:10.933Z,100934.38
2018-07-28T01:09:43.894Z,100928.28
2018-07-28T01:12:15.283Z,100926.63
2018-07-28T01:14:46.726Z,100928.63
2018-07-28T01:17:20.143Z,100920.14
2018-07-28T01:19:53.038Z,100923.68
2018-07-28T01:22:26.270Z,100916.33
2018-07-28T01:25:00.094Z,100916.39
2018-07-28T01:27:33.362Z,100905.14
2018-07-28T01:30:06.212Z,100917.09
2018-07-28T01:32:40.604Z,100911.50
2018-07-28T01:35:13.643Z,100914.38
2018-07-28T01:37:44.763Z,100923.95
2018-07-28T01:40:16.254Z,100924.41
2018-07-28T01:42:47.661Z,100937.52
2018-07-28T01:45:22.359Z,100937.64
2018-07-28T01:47:55.511Z,100937.19
2018-07-28T01:50:27.451Z,100952.14
2018-07-28T01:52:57.441Z,100972.72
2018-07-28T01:55:30.359Z,101026.56
2018-07-28T01:58:02.292Z,101088.08
2018-07-28T02:00:37.071Z,101083.10
2018-07-28T02:03:11.615Z,101075.16
2018-07-28T02:05:43.548Z,101085.80
2018-07-28T02:08:15.352Z,101090.68
2018-07-28T02:10:48.275Z,101090.35
2018-07-28T02:13:19.763Z,101097.45
2018-07-28T02:15:51.176Z,101088.95
2018-07-28T02:18:22.705Z,101084.12
2018-07-28T02:20:52.741Z,101086.53
2018-07-28T02:23:24.285Z,101085.97
2018-07-28T02:25:58.694Z,101078.25
2018-07-28T02:28:33.283Z,101085.83
2018-07-28T02:31:07.708Z,101078.27
2018-07-28T02:33:39.089Z,101059.41
2018-07-28T02:36:10.832Z,101040.15
2018-07-28T02:38:44.220Z,101014.55
2018-07-28T02:41:18.663Z,101000.91
2018-07-28T02:43:52.129Z,101018.53
2018-07-28T02:46:25.023Z,101049.63
2018-07-28T02:48:58.059Z,101054.45
2018-07-28T02:51:29.833Z,101047.33
2018-07-28T02:54:02.785Z,101054.89
2018-07-28T02:56:37.409Z,101053.72
2018-07-28T02:59:10.843Z,101045.80
2018-07-28T03:01:43.778Z,101038.23
2018-07-28T03:04:18.351Z,101034.74
2018-07-28T03:06:49.932Z,101029.41
2018-07-28T03:09:23.142Z,101019.81
2018-07-28T03:11:56.373Z,101032.00
2018-07-28T03:14:27.061Z,101058.50
2018-07-28T03:16:57.150Z,101077.98
2018-07-28T03:19:29.987Z,101071.16
2018-07-28T03:22:01.666Z,101063.22
2018-07-28T03:24:33.685Z,101057.47
2018-07-28T03:27:05.147Z,101057.62
2018-07-28T03:29:38.424Z,101050.72
2018-07-28T03:32:13.022Z,101041.89
2018-07-28T03:34:44.778Z,101035.41
2018-07-28T03:37:16.348Z,101036.72
2018-07-28T03:39:49.325Z,101043.39
2018-07-28T03:42:19.755Z,101033.11
2018-07-28T03:44:51.216Z,101032.03
2018-07-28T03:47:24.648Z,101030.75
2018-07-28T03:49:56.105Z,101034.48
2018-07-28T03:52:30.766Z,101024.81
2018-07-28T03:55:01.311Z,101024.11
2018-07-28T03:57:35.224Z,101011.70
2018-07-28T04:00:09.822Z,101031.33
2018-07-28T04:02:43.004Z,101022.20
2018-07-28T04:05:15.901Z,101007.97
2018-07-28T04:07:48.396Z,101006.00
2018-07-28T04:10:21.781Z,101000.52
2018-07-28T04:12:52.963Z,100993.75
2018-07-28T04:15:26.226Z,100990.61
2018-07-28T04:17:58.390Z,100978.78
2018-07-28T04:20:32.911Z,100977.86
2018-07-28T04:23:07.595Z,100965.69
2018-07-28T04:25:42.374Z,100947.98
2018-07-28T04:28:16.775Z,100953.58
2018-07-28T04:30:46.722Z,100941.63
2018-07-28T04:33:21.129Z,100931.81
2018-07-28T04:35:52.894Z,100924.90
2018-07-28T04:38:27.268Z,100901.39
2018-07-28T04:40:58.703Z,100904.40
2018-07-28T04:43:32.025Z,100897.83
2018-07-28T04:46:06.457Z,100896.53
2018-07-28T04:48:39.438Z,100899.75
2018-07-28T04:51:11.074Z,100904.33
2018-07-28T04:53:42.590Z,100902.33
2018-07-28T04:56:15.659Z,100920.67
2018-07-28T04:58:47.154Z,100927.36
2018-07-28T05:01:20.075Z,100942.00
2018-07-28T05:03:50.776Z,100951.95
2018-07-28T05:06:22.432Z,100963.34
2018-07-28T05:08:56.940Z,100964.95
2018-07-28T05:11:31.460Z,100981.19
2018-07-28T05:14:03.114Z,100992.00
2018-07-28T05:16:33.135Z,100990.11
2018-07-28T05:19:04.858Z,100985.52
2018-07-28T05:21:38.517Z,100971.48
2018-07-28T05:24:10.282Z,100957.85
2018-07-28T05:26:43.410Z,100955.69
2018-07-28T05:29:16.331Z,100948.58
2018-07-28T05:31:46.275Z,100949.48
2018-07-28T05:34:19.703Z,100963.38
2018-07-28T05:36:51.119Z,100979.06
2018-07-28T05:39:24.074Z,100985.69
2018-07-28T05:41:55.752Z,100999.22
2018-07-28T05:44:27.555Z,100979.31
2018-07-28T05:47:01.790Z,100999.17
2018-07-28T05:49:34.811Z,100998.31
2018-07-28T05:52:06.276Z,100993.53
2018-07-28T05:54:38.222Z,101006.66
2018-07-28T05:57:10.238Z,101019.79
2018-07-28T05:59:41.654Z,101049.93
2018-07-28T06:02:13.346Z,101052.81
2018-07-28T06:04:46.573Z,101064.14
2018-07-28T06:07:19.454Z,101087.63
2018-07-28T06:09:49.915Z,101087.83
2018-07-28T06:12:21.451Z,101091.47
2018-07-28T06:14:54.680Z,101113.50
2018-07-28T06:17:29.509Z,101116.05
2018-07-28T06:20:04.068Z,101123.64
2018-07-28T06:22:37.292Z,101132.70
2018-07-28T06:25:10.937Z,101138.59
2018-07-28T06:27:44.261Z,101141.73
2018-07-28T06:30:16.525Z,101135.05
2018-07-28T06:32:51.515Z,101137.27
2018-07-28T06:35:24.340Z,101116.75
2018-07-28T06:37:55.862Z,101112.15
2018-07-28T06:40:28.732Z,101097.20
2018-07-28T06:43:01.915Z,101077.06
2018-07-28T06:45:36.234Z,101078.22
2018-07-28T06:48:09.137Z,101078.92
2018-07-28T06:50:43.500Z,101067.95
2018-07-28T06:53:16.552Z,101064.32
2018-07-28T06:55:48.451Z,101051.87
2018-07-28T06:58:21.608Z,101050.25
2018-07-28T07:00:54.572Z,101051.67
2018-07-28T07:03:28.921Z,101056.84
2018-07-28T07:05:59.340Z,101072.91
2018-07-28T07:08:30.828Z,101070.92
2018-07-28T07:11:02.302Z,101059.62
2018-07-28T07:13:32.271Z,101067.81
2018-07-28T07:16:02.279Z,101065.53
2018-07-28T07:18:35.299Z,101064.77
2018-07-28T07:21:07.325Z,101059.56
2018-07-28T07:23:37.274Z,101056.80
2018-07-28T07:26:07.228Z,101058.73
2018-07-28T07:28:38.705Z,101056.02
2018-07-28T07:31:10.073Z,101071.22
2018-07-28T07:33:41.517Z,101076.47
2018-07-28T07:36:11.836Z,101086.58
2018-07-28T07:38:41.626Z,101088.63
2018-07-28T07:41:14.961Z,101087.27
2018-07-28T07:43:47.937Z,101105.85
2018-07-28T07:46:19.388Z,101097.20
2018-07-28T07:48:49.371Z,101102.66
2018-07-28T07:51:21.105Z,101114.89
2018-07-28T07:53:51.592Z,101121.85
2018-07-28T07:56:24.444Z,101119.52
2018-07-28T07:58:55.906Z,101120.23
2018-07-28T08:01:30.294Z,101114.39
2018-07-28T08:04:02.737Z,101112.33
2018-07-28T08:06:34.206Z,101116.22
2018-07-28T08:09:08.008Z,101118.97
2018-07-28T08:11:42.496Z,101127.91
2018-07-28T08:14:13.857Z,101126.61
2018-07-28T08:16:46.773Z,101129.61
2018-07-28T08:19:18.267Z,101129.27
2018-07-28T08:21:49.789Z,101150.47
2018-07-28T08:24:21.743Z,101149.23
2018-07-28T08:26:53.311Z,101149.80
2018-07-28T08:29:24.699Z,101137.44
2018-07-28T08:31:56.181Z,101139.39
2018-07-28T08:34:28.958Z,101139.80
2018-07-28T08:36:58.884Z,101135.69
2018-07-28T08:39:28.925Z,101130.94
2018-07-28T08:42:00.356Z,101128.34
2018-07-28T08:44:30.889Z,101137.41
2018-07-28T08:47:02.770Z,101129.06
2018-07-28T08:49:32.714Z,101120.19
2018-07-28T08:52:05.605Z,101132.52
2018-07-28T08:54:35.654Z,101126.11
2018-07-28T08:57:07.044Z,101133.95
2018-07-28T08:59:37.433Z,101139.89
2018-07-28T09:02:09.389Z,101139.56
2018-07-28T09:04:41.009Z,101152.52
2018-07-28T09:07:14.841Z,101156.03
2018-07-28T09:09:46.242Z,101164.91
2018-07-28T09:12:19.201Z,101162.02
2018-07-28T09:14:48.400Z,101163.02
2018-07-28T09:17:21.527Z,101164.76
2018-07-28T09:19:54.712Z,101164.76
2018-07-28T09:22:26.366Z,101163.13
2018-07-28T09:24:57.751Z,101158.75
2018-07-28T09:27:32.403Z,101161.48
2018-07-28T09:30:05.249Z,101162.72
2018-07-28T09:32:37.374Z,101171.98
2018-07-28T09:35:08.014Z,101176.72
2018-07-28T09:37:40.947Z,101182.37
2018-07-28T09:40:13.851Z,101183.65
2018-07-28T09:42:43.802Z,101183.77
2018-07-28T09:45:16.614Z,101188.63
2018-07-28T09:47:49.496Z,101201.56
2018-07-28T09:50:22.325Z,101200.73
2018-07-28T09:52:55.293Z,101228.25
2018-07-28T09:55:26.838Z,101231.34
2018-07-28T09:57:58.635Z,101254.14
2018-07-28T10:00:48.121Z,101245.39
2018-07-28T10:03:21.029Z,101253.50
2018-07-28T10:05:54.030Z,101261.69
2018-07-28T10:08:25.447Z,101249.48
2018-07-28T10:10:58.278Z,101251.46
2018-07-28T10:13:30.176Z,101238.62
2018-07-28T10:16:00.115Z,101235.03
2018-07-28T10:18:33.007Z,101237.37
2018-07-28T10:21:04.516Z,101232.77
2018-07-28T10:23:38.844Z,101226.70
2018-07-28T10:26:08.987Z,101230.97
2018-07-28T10:28:38.870Z,101226.57
2018-07-28T10:31:11.719Z,101222.38
2018-07-28T10:33:44.798Z,101227.06
2018-07-28T10:36:16.208Z,101213.61
2018-07-28T10:38:49.008Z,101194.96
2018-07-28T10:41:19.674Z,101196.01
2018-07-28T10:43:51.315Z,101197.11
2018-07-28T10:46:22.884Z,101189.56
2018-07-28T10:48:55.057Z,101190.77
2018-07-28T10:51:27.898Z,101186.64
2018-07-28T10:54:00.382Z,101171.97
2018-07-28T10:56:30.370Z,101173.39
2018-07-28T10:59:02.353Z,101139.94
2018-07-28T11:01:35.542Z,101151.28
2018-07-28T11:04:06.839Z,101151.22
2018-07-28T11:06:36.886Z,101117.98
2018-07-28T11:09:13.013Z,101129.95
2018-07-28T11:11:44.340Z,101111.76
2018-07-28T11:14:15.772Z,101099.41
2018-07-28T11:16:47.522Z,101100.05
2018-07-28T11:19:20.896Z,101089.92
2018-07-28T11:21:52.257Z,101083.05
2018-07-28T11:24:23.714Z,101088.02
2018-07-28T11:26:55.194Z,101090.61
2018-07-28T11:29:28.641Z,101071.78
2018-07-28T11:32:35.981Z,101058.58
2018-07-28T11:35:42.018Z,101057.44
2018-07-28T11:38:49.688Z,101077.91
2018-07-28T11:41:55.459Z,101071.17
2018-07-28T11:44:57.315Z,101072.27
2018-07-28T11:47:28.671Z,101078.23
2018-07-28T11:50:00.055Z,101055.67
2018-07-28T11:52:31.967Z,101031.70
2018-07-28T11:55:04.848Z,101051.59
2018-07-28T11:57:34.770Z,101051.58
2018-07-28T12:00:08.197Z,101054.03
2018-07-28T12:02:41.816Z,101032.58
2018-07-28T12:05:13.216Z,101033.42
2018-07-28T12:07:46.136Z,101045.97
2018-07-28T12:10:17.460Z,101055.74
2018-07-28T12:12:50.398Z,101095.33
2018-07-28T12:15:24.904Z,101084.80
2018-07-28T12:17:57.782Z,101084.58
2018-07-28T12:20:32.571Z,101096.92
2018-07-28T12:23:03.431Z,101071.80
2018-07-28T12:25:36.452Z,101048.66
2018-07-28T12:28:08.055Z,101049.95
2018-07-28T12:30:40.905Z,101056.97
2018-07-28T12:33:15.352Z,101100.20
2018-07-28T12:35:45.980Z,101145.86
2018-07-28T12:38:17.536Z,101157.62
2018-07-28T12:40:49.083Z,101140.69
2018-07-28T12:43:18.990Z,101135.78
2018-07-28T12:45:50.555Z,101153.75
2018-07-28T12:48:23.596Z,101168.75
2018-07-28T12:50:55.061Z,101181.49
2018-07-28T12:53:27.928Z,101179.44
2018-07-28T12:55:59.309Z,101185.72
2018-07-28T12:58:31.470Z,101188.12
2018-07-28T13:01:01.495Z,101202.58
2018-07-28T13:03:34.712Z,101196.74
2018-07-28T13:06:06.106Z,101178.58
2018-07-28T13:08:37.498Z,101161.32
2018-07-28T13:11:08.804Z,101172.19
2018-07-28T13:13:40.699Z,101188.83
2018-07-28T13:16:12.185Z,101188.69
2018-07-28T13:18:46.069Z,101180.61
2018-07-28T13:21:17.357Z,101183.60
2018-07-28T13:23:50.328Z,101206.20
2018-07-28T13:26:21.506Z,101197.91
2018-07-28T13:28:52.953Z,101218.55
2018-07-28T13:31:24.447Z,101205.90
2018-07-28T13:33:56.516Z,101217.08
2018-07-28T13:36:29.311Z,101209.35
2018-07-28T13:39:00.356Z,101215.23
2018-07-28T13:41:33.223Z,101222.92
2018-07-28T13:44:03.116Z,101223.52
2018-07-28T13:46:34.505Z,101230.00
2018-07-28T13:49:06.037Z,101213.12
2018-07-28T13:51:37.960Z,101209.69
2018-07-28T13:54:10.822Z,101228.05
2018-07-28T13:56:43.959Z,101238.61
2018-07-28T13:59:16.007Z,101226.24
2018-07-28T14:01:48.940Z,101232.86
2018-07-28T14:04:20.351Z,101243.41
2018-07-28T14:06:53.352Z,101236.19
2018-07-28T14:09:26.442Z,101233.12
2018-07-28T14:11:57.877Z,101238.80
2018-07-28T14:14:30.897Z,101238.55
2018-07-28T14:17:02.237Z,101230.56
2018-07-28T14:19:34.101Z,101243.84
2018-07-28T14:22:06.971Z,101244.23
2018-07-28T14:24:38.395Z,101249.02
2018-07-28T14:27:09.771Z,101247.08
2018-07-28T14:29:41.166Z,101246.02
2018-07-28T14:32:12.582Z,101263.86
2018-07-28T14:34:43.974Z,101249.52
2018-07-28T14:37:17.235Z,101264.21
2018-07-28T14:39:50.093Z,101257.97
2018-07-28T14:42:23.052Z,101267.42
2018-07-28T14:44:55.894Z,101267.75
2018-07-28T14:47:29.272Z,101269.61
2018-07-28T14:50:00.568Z,101269.31
2018-07-28T14:52:30.439Z,101275.03
2018-07-28T14:55:01.833Z,101268.48
2018-07-28T14:57:34.607Z,101271.09
2018-07-28T15:00:06.040Z,101274.51
2018-07-28T15:02:37.668Z,101284.94
2018-07-28T15:05:09.536Z,101297.12
2018-07-28T15:07:40.931Z,101296.79
2018-07-28T15:10:13.921Z,101280.42
2018-07-28T15:12:43.877Z,101296.77
2018-07-28T15:15:16.752Z,101304.69
2018-07-28T15:17:51.277Z,101315.16
2018-07-28T15:20:24.059Z,101312.79
2018-07-28T15:22:53.944Z,101319.05
2018-07-28T15:25:26.129Z,101333.04
2018-07-28T15:27:56.503Z,101327.17
2018-07-28T15:30:29.379Z,101322.52
2018-07-28T15:33:01.081Z,101333.19
2018-07-28T15:35:30.268Z,101330.26
2018-07-28T15:38:01.594Z,101339.16
2018-07-28T15:40:34.068Z,101328.39
2018-07-28T15:43:05.521Z,101319.61
2018-07-28T15:45:36.849Z,101332.39
2018-07-28T15:48:08.587Z,101329.45
2018-07-28T15:50:41.400Z,101332.75
2018-07-28T15:53:12.938Z,101355.83
2018-07-28T15:55:42.852Z,101344.70
2018-07-28T15:58:14.312Z,101350.55
2018-07-28T16:00:44.294Z,101344.94
2018-07-28T16:03:17.206Z,101350.07
2018-07-28T16:05:48.640Z,101350.17
2018-07-28T16:08:20.542Z,101348.06
2018-07-28T16:10:54.941Z,101346.95
2018-07-28T16:13:27.926Z,101349.33
2018-07-28T16:15:59.240Z,101354.11
2018-07-28T16:18:30.571Z,101354.65
2018-07-28T16:21:02.057Z,101358.75
2018-07-28T16:23:36.346Z,101354.49
2018-07-28T16:26:08.222Z,101361.03
2018-07-28T16:28:40.963Z,101364.95
2018-07-28T16:31:10.917Z,101362.77
2018-07-28T16:33:41.308Z,101364.22
2018-07-28T16:36:11.275Z,101370.73
2018-07-28T16:38:41.386Z,101362.70
2018-07-28T16:41:12.332Z,101360.71
2018-07-28T16:43:43.834Z,101369.48
2018-07-28T16:46:15.310Z,101371.45
2018-07-28T16:48:45.429Z,101369.46
2018-07-28T16:51:18.277Z,101374.66
2018-07-28T16:53:49.748Z,101373.12
2018-07-28T16:56:22.728Z,101377.91
2018-07-28T16:58:57.230Z,101378.42
2018-07-28T17:01:28.598Z,101382.19
2018-07-28T17:04:00.114Z,101375.57
2018-07-28T17:06:32.514Z,101381.69
2018-07-28T17:09:05.404Z,101385.05
2018-07-28T17:11:35.340Z,101389.06
2018-07-28T17:14:07.084Z,101383.61
2018-07-28T17:16:39.835Z,101385.05
2018-07-28T17:19:10.318Z,101398.91
2018-07-28T17:21:45.005Z,101389.95
2018-07-28T17:24:15.588Z,101401.50
2018-07-28T17:26:46.913Z,101405.42
2018-07-28T17:29:17.399Z,101410.25
2018-07-28T17:31:50.530Z,101422.72
2018-07-28T17:34:22.695Z,101429.34
2018-07-28T17:36:54.271Z,101427.08
2018-07-28T17:39:28.861Z,101418.46
2018-07-28T17:41:58.749Z,101435.40
2018-07-28T17:44:28.743Z,101442.97
2018-07-28T17:47:02.187Z,101438.64
2018-07-28T17:49:34.067Z,101430.63
2018-07-28T17:52:04.013Z,101427.66
2018-07-28T17:54:34.122Z,101431.39
2018-07-28T17:57:04.042Z,101439.42
2018-07-28T17:59:36.961Z,101441.79
2018-07-28T18:02:06.893Z,101453.53
2018-07-28T18:04:38.312Z,101458.94
2018-07-28T18:07:09.852Z,101469.29
2018-07-28T18:09:40.231Z,101470.47
2018-07-28T18:12:14.060Z,101472.34
2018-07-28T18:14:43.707Z,101477.59
2018-07-28T18:17:14.519Z,101482.94
2018-07-28T18:19:45.985Z,101488.77
2018-07-28T18:22:17.416Z,101499.59
2018-07-28T18:24:49.604Z,101506.12
2018-07-28T18:27:21.215Z,101508.09
2018-07-28T18:29:53.953Z,101523.23
2018-07-28T18:32:24.439Z,101523.27
2018-07-28T18:34:59.400Z,101539.17
2018-07-28T18:37:29.326Z,101550.48
2018-07-28T18:39:59.501Z,101558.42
2018-07-28T18:42:30.326Z,101564.01
2018-07-28T18:45:05.103Z,101573.70
2018-07-28T18:47:36.669Z,101576.55
2018-07-28T18:50:08.981Z,101577.87
2018-07-28T18:52:40.793Z,101594.33
2018-07-28T18:55:11.795Z,101600.94
2018-07-28T18:57:45.424Z,101606.50
2018-07-28T19:00:19.961Z,101612.20
2018-07-28T19:02:50.338Z,101619.72
2018-07-28T19:05:23.356Z,101628.94
2018-07-28T19:07:56.610Z,101631.31
2018-07-28T19:10:28.282Z,101640.13
2018-07-28T19:13:15.914Z,101655.22
2018-07-28T19:15:47.684Z,101662.39
2018-07-28T19:18:38.592Z,101664.35
2018-07-28T19:21:10.439Z,101661.78
2018-07-28T19:24:03.509Z,101684.16
2018-07-28T19:26:36.628Z,101688.38
2018-07-28T19:29:24.960Z,101698.69
2018-07-28T19:31:59.415Z,101700.53
2018-07-28T19:34:31.218Z,101714.80
2018-07-28T19:37:18.976Z,101709.08
2018-07-28T19:39:52.612Z,101710.25
2018-07-28T19:42:41.413Z,101709.64
2018-07-28T19:45:15.630Z,101711.17
2018-07-28T19:47:48.696Z,101714.29
2018-07-28T19:50:22.617Z,101729.88
2018-07-28T19:52:55.797Z,101736.84
2018-07-28T19:55:27.237Z,101742.21
2018-07-28T19:58:00.211Z,101745.17
2018-07-28T20:00:33.323Z,101746.83
2018-07-28T20:03:06.380Z,101753.42
2018-07-28T20:05:38.029Z,101761.88
2018-07-28T20:08:13.033Z,101767.33
2018-07-28T20:10:46.156Z,101764.08
2018-07-28T20:13:16.177Z,101766.77
2018-07-28T20:15:50.182Z,101764.66
2018-07-28T20:18:20.358Z,101762.61
2018-07-28T20:20:54.894Z,101770.45
2018-07-28T20:23:27.980Z,101779.72
2018-07-28T20:26:01.624Z,101778.02
2018-07-28T20:28:34.498Z,101782.18
2018-07-28T20:31:06.140Z,101792.55
2018-07-28T20:33:39.095Z,101795.05
2018-07-28T20:36:12.831Z,101799.17
2018-07-28T20:38:45.790Z,101805.91
2018-07-28T20:41:17.625Z,101808.63
2018-07-28T20:43:48.965Z,101805.92
2018-07-28T20:46:23.474Z,101803.01
2018-07-28T20:48:56.710Z,101811.84
2018-07-28T20:51:26.742Z,101807.13
2018-07-28T20:53:59.920Z,101815.72
2018-07-28T20:56:34.300Z,101818.33
2018-07-28T20:59:06.167Z,101823.73
2018-07-28T21:01:40.666Z,101821.02
2018-07-28T21:04:12.366Z,101818.27
2018-07-28T21:06:43.811Z,101822.61
2018-07-28T21:09:15.289Z,101828.91
2018-07-28T21:11:50.232Z,101831.80
2018-07-28T21:14:23.282Z,101830.45
2018-07-28T21:16:56.842Z,101839.45
2018-07-28T21:19:30.106Z,101833.87
2018-07-28T21:22:04.555Z,101837.22
2018-07-28T21:24:36.193Z,101842.91
2018-07-28T21:27:06.517Z,101846.13
2018-07-28T21:29:39.615Z,101850.38
2018-07-28T21:32:14.441Z,101856.05
2018-07-28T21:34:47.614Z,101869.28
2018-07-28T21:37:22.219Z,101872.69
2018-07-28T21:39:52.446Z,101878.83
2018-07-28T21:42:26.883Z,101887.34
2018-07-28T21:45:00.163Z,101898.05
2018-07-28T21:47:33.084Z,101899.36
2018-07-28T21:50:06.125Z,101888.78
2018-07-28T21:52:37.627Z,101896.72
2018-07-28T21:55:08.424Z,101894.67
2018-07-28T21:57:41.442Z,101905.08
2018-07-28T22:00:14.438Z,101900.38
2018-07-28T22:02:45.949Z,101899.69
2018-07-28T22:05:22.202Z,101889.90
2018-07-28T22:07:54.031Z,101891.40
2018-07-28T22:10:25.914Z,101898.14
2018-07-28T22:13:00.390Z,101901.70
2018-07-28T22:15:32.006Z,101902.01
2018-07-28T22:18:05.391Z,101900.36
2018-07-28T22:20:37.094Z,101898.53
2018-07-28T22:23:10.451Z,101901.64
2018-07-28T22:25:45.088Z,101910.36
2018-07-28T22:28:18.149Z,101924.65
2018-07-28T22:30:50.631Z,101923.67
2018-07-28T22:33:23.683Z,101926.78
2018-07-28T22:35:57.054Z,101929.64
2018-07-28T22:38:30.234Z,101916.83
2018-07-28T22:41:01.303Z,101920.27
2018-07-28T22:43:36.158Z,101922.87
2018-07-28T22:46:09.317Z,101924.50
2018-07-28T22:48:44.027Z,101931.30
2018-07-28T22:51:14.167Z,101933.20
2018-07-28T22:53:45.711Z,101935.81
2018-07-28T22:56:17.820Z,101940.39
2018-07-28T22:58:50.585Z,101951.80
2018-07-28T23:01:23.994Z,101955.83
2018-07-28T23:03:56.809Z,101962.47
2018-07-28T23:06:30.680Z,101961.33
2018-07-28T23:09:03.707Z,101961.89
2018-07-28T23:11:36.766Z,101963.43
2018-07-28T23:14:10.482Z,101959.94
2018-07-28T23:16:42.172Z,101954.81
2018-07-28T23:19:15.316Z,101955.44
2018-07-28T23:21:47.699Z,101947.80
2018-07-28T23:24:22.165Z,101940.31
2018-07-28T23:26:56.943Z,101941.93
2018-07-28T23:29:30.461Z,101939.91
2018-07-28T23:32:03.946Z,101940.25
2018-07-28T23:34:38.264Z,101946.86
2018-07-28T23:37:11.858Z,101945.64
2018-07-28T23:39:46.339Z,101936.59
2018-07-28T23:42:16.949Z,101938.09
2018-07-28T23:44:51.310Z,101942.23
2018-07-28T23:47:22.876Z,101946.91
2018-07-28T23:49:55.238Z,101950.09
2018-07-28T23:52:28.512Z,101951.08
2018-07-28T23:54:59.348Z,101951.39
2018-07-28T23:57:30.987Z,101954.57
